Andrews Air Force Base
KADW : now visible

Airfield :











YOU CAN JOIN US ON...

 
LOGIN :

Register | Disclaimer

   EN    FR    IT 

 









Legend :    VFR   Marginal VFR   IFR   Intensive IFR   Very Intensive IFR
Visi :
Ceiling :
>= 8 km
>= 3000ft
5 to 8 km
1000 to 3000 ft
1500m to 5 km
500 to 1000 ft
800 to 1500m
200 to 500 ft
< 800m
< 200 ft
Symbols :   Thunderstorms  Fog  Heavy snow  Heavy precipitations  Wind > 20 kt







- Airport Elevation : 280 ft


KADW - Andrews Air Force Base

CURRENT METAR :
  • 221803Z AUTO 36014G21KT 10SM CLR 20/09 A3008 RMK AO2 WSHFT 1756 SLP192 $

EXPIRED METARs :
  • 221756Z AUTO 31012KT 10SM FEW150 FEW190 20/09 A3008 RMK AO2 SLP192 T01950088 10198 20128 57016 $
  • 221728Z AUTO 30013G20KT 10SM FEW042 FEW180 19/09 A3009 RMK AO2 WSHFT 25 SLP195 $
  • 221656Z AUTO 35013KT 10SM SCT040 SCT140 19/09 A3011 RMK AO2 SLP202 T01860088 $
  • 221556Z AUTO 31016G20KT 10SM BKN036 17/08 A3012 RMK AO2 SLP206 T01730084 $

TAF TAF KADW
Valid from the 22 at 17:00 until the 23 at 23:00 UTC


221700Z 2217/2323 33015G20KT 9999 SCT045 OVC060 QNH3010INS
BECMG 2223/2224 30009KT 9999 FEW070 QNH3012INS
BECMG 2308/2309 VRB06KT 9999 FEW090 QNH3006INS TX22/2221Z TN12/2310Z
KZDC FIR / North America



MET'MAP, your aeronautical weather chart ! - Copyright ORBIFLY December 2007 - Disclaimer

ORBIFLY MET'MAP TEAM :

Programming & Development : Alexandra Zaïnal
Concept & Development : Baudouin d'Aumeries
Co-Development & Prog : Marc-Olivier Méhu
Technical & hardware support : Manuel Goepfert

Contact : metmap@orbifly.com




SOURCES & CREDITS :

   NOAA       Earth
Advisory